createdAt,value
2019-05-20T00:01:37.259Z,7.08
2019-05-20T00:04:06.386Z,7.62
2019-05-20T00:06:35.735Z,8.40
2019-05-20T00:09:06.078Z,7.65
2019-05-20T00:11:35.283Z,8.15
2019-05-20T00:14:04.461Z,8.35
2019-05-20T00:16:33.620Z,8.28
2019-05-20T00:19:02.736Z,7.62
2019-05-20T00:21:31.865Z,8.00
2019-05-20T00:24:00.955Z,9.03
2019-05-20T00:26:30.091Z,9.65
2019-05-20T00:28:59.293Z,9.28
2019-05-20T00:31:28.420Z,8.83
2019-05-20T00:33:57.595Z,8.25
2019-05-20T00:36:26.708Z,9.43
2019-05-20T00:39:19.232Z,9.45
2019-05-20T00:41:48.533Z,9.13
2019-05-20T00:44:18.181Z,10.00
2019-05-20T00:46:47.375Z,10.08
2019-05-20T00:49:16.647Z,8.95
2019-05-20T00:51:45.834Z,10.20
2019-05-20T00:54:15.065Z,9.05
2019-05-20T00:56:44.182Z,9.05
2019-05-20T00:59:13.357Z,9.65
2019-05-20T01:01:42.465Z,11.30
2019-05-20T01:04:11.615Z,9.33
2019-05-20T01:06:40.739Z,10.00
2019-05-20T01:09:09.856Z,9.78
2019-05-20T01:11:39.113Z,10.45
2019-05-20T01:14:08.253Z,10.75
2019-05-20T01:16:37.405Z,11.83
2019-05-20T01:19:06.529Z,10.32
2019-05-20T01:21:35.701Z,11.25
2019-05-20T01:24:04.934Z,10.38
2019-05-20T01:26:34.181Z,11.12
2019-05-20T01:29:03.301Z,11.15
2019-05-20T01:31:32.439Z,8.88
2019-05-20T01:34:01.633Z,9.73
2019-05-20T01:36:30.760Z,8.88
2019-05-20T01:38:59.942Z,11.97
2019-05-20T01:41:29.087Z,10.13
2019-05-20T01:43:58.345Z,9.90
2019-05-20T01:46:27.493Z,9.50
2019-05-20T01:48:56.699Z,9.80
2019-05-20T01:51:25.828Z,9.63
2019-05-20T01:53:55.053Z,10.63
2019-05-20T01:56:24.226Z,12.05
2019-05-20T01:58:53.382Z,11.12
2019-05-20T02:01:22.510Z,11.10
2019-05-20T02:03:51.638Z,12.13
2019-05-20T02:06:20.788Z,11.33
2019-05-20T02:08:49.904Z,11.08
2019-05-20T02:11:19.031Z,11.53
2019-05-20T02:14:07.078Z,13.65
2019-05-20T02:16:36.210Z,12.75
2019-05-20T02:19:05.614Z,12.75
2019-05-20T02:21:34.804Z,13.22
2019-05-20T02:24:03.917Z,11.43
2019-05-20T02:26:33.027Z,11.45
2019-05-20T02:29:02.160Z,12.90
2019-05-20T02:31:31.270Z,12.65
2019-05-20T02:34:00.439Z,11.15
2019-05-20T02:36:29.601Z,12.28
2019-05-20T02:38:58.770Z,13.03
2019-05-20T02:41:28.287Z,13.45
2019-05-20T02:43:57.456Z,12.37
2019-05-20T02:46:26.588Z,11.60
2019-05-20T02:48:55.809Z,13.62
2019-05-20T02:51:33.730Z,13.50
2019-05-20T02:54:03.403Z,12.13
2019-05-20T02:56:32.585Z,14.50
2019-05-20T02:59:01.811Z,12.55
2019-05-20T03:01:30.956Z,14.83
2019-05-20T03:04:10.705Z,12.85
2019-05-20T03:06:30.956Z,13.90
2019-05-20T03:09:00.087Z,15.43
2019-05-20T03:11:29.230Z,16.50
2019-05-20T03:13:58.471Z,16.37
2019-05-20T03:16:27.655Z,16.97
2019-05-20T03:18:56.810Z,17.40
2019-05-20T03:21:25.988Z,16.42
2019-05-20T03:23:55.292Z,14.80
2019-05-20T03:26:24.407Z,16.02
2019-05-20T03:28:53.561Z,14.68
2019-05-20T03:31:22.702Z,15.95
2019-05-20T03:33:51.827Z,13.85
2019-05-20T03:36:20.959Z,16.20
2019-05-20T03:38:50.111Z,13.80
2019-05-20T03:41:19.226Z,15.93
2019-05-20T03:43:48.337Z,15.80
2019-05-20T03:46:17.668Z,15.80
2019-05-20T03:48:46.802Z,18.52
2019-05-20T03:51:15.928Z,15.50
2019-05-20T03:53:45.052Z,15.70
2019-05-20T03:56:14.245Z,15.40
2019-05-20T03:58:43.367Z,16.77
2019-05-20T04:01:12.564Z,18.92
2019-05-20T04:03:41.673Z,15.70
2019-05-20T04:06:10.817Z,18.98
2019-05-20T04:08:40.077Z,15.40
2019-05-20T04:11:09.236Z,15.68
2019-05-20T04:13:38.385Z,14.47
2019-05-20T04:16:07.554Z,17.20
2019-05-20T04:18:36.724Z,15.43
2019-05-20T04:21:05.889Z,15.75
2019-05-20T04:23:35.296Z,16.02
2019-05-20T04:26:04.695Z,17.95
2019-05-20T04:28:33.871Z,15.50
2019-05-20T04:31:03.098Z,15.53
2019-05-20T04:33:32.210Z,14.23
2019-05-20T04:36:01.331Z,16.45
2019-05-20T04:38:30.524Z,15.48
2019-05-20T04:40:59.643Z,18.12
2019-05-20T04:43:28.795Z,15.68
2019-05-20T04:45:58.137Z,15.15
2019-05-20T04:48:27.276Z,15.72
2019-05-20T04:50:56.408Z,17.23
2019-05-20T04:53:25.617Z,20.72
2019-05-20T04:55:54.793Z,16.50
2019-05-20T04:58:23.915Z,20.90
2019-05-20T05:00:57.499Z,20.45
2019-05-20T05:03:26.614Z,19.20
2019-05-20T05:05:56.345Z,17.02
2019-05-20T05:08:25.501Z,17.75
2019-05-20T05:10:54.802Z,15.70
2019-05-20T05:13:24.281Z,13.30
2019-05-20T05:15:53.609Z,15.50
2019-05-20T05:18:22.761Z,13.95
2019-05-20T05:20:52.249Z,14.68
2019-05-20T05:23:22.413Z,17.10
2019-05-20T05:25:51.581Z,15.78
2019-05-20T05:28:21.141Z,17.82
2019-05-20T05:30:50.600Z,18.50
2019-05-20T05:33:19.733Z,17.17
2019-05-20T05:35:53.146Z,14.80
2019-05-20T05:38:19.992Z,17.90
2019-05-20T05:40:52.094Z,18.60
2019-05-20T05:43:21.239Z,19.55
2019-05-20T05:45:50.383Z,16.45
2019-05-20T05:48:19.617Z,15.95
2019-05-20T05:50:49.149Z,20.95
2019-05-20T05:53:18.286Z,17.67
2019-05-20T05:55:47.443Z,18.23
2019-05-20T05:58:16.611Z,17.30
2019-05-20T06:00:45.801Z,17.37
2019-05-20T06:03:14.960Z,21.48
2019-05-20T06:05:44.096Z,24.40
2019-05-20T06:08:13.265Z,25.08
2019-05-20T06:10:42.473Z,32.25
2019-05-20T06:13:11.600Z,29.75
2019-05-20T06:15:40.783Z,22.22
2019-05-20T06:18:10.068Z,26.45
2019-05-20T06:20:39.174Z,24.67
2019-05-20T06:23:08.314Z,25.72
2019-05-20T06:25:42.950Z,23.92
2019-05-20T06:30:44.388Z,32.05
2019-05-20T06:33:14.052Z,35.17
2019-05-20T06:35:43.486Z,31.62
2019-05-20T06:38:19.216Z,32.53
2019-05-20T06:40:48.281Z,35.40
2019-05-20T06:43:17.540Z,33.15
2019-05-20T06:45:46.675Z,33.80
2019-05-20T06:48:16.664Z,34.95
2019-05-20T06:50:51.546Z,36.23
2019-05-20T06:53:20.959Z,35.00
2019-05-20T06:55:50.129Z,34.98
2019-05-20T06:58:19.249Z,39.42
2019-05-20T07:00:49.036Z,38.28
2019-05-20T07:03:18.092Z,38.75
2019-05-20T07:05:48.112Z,40.35
2019-05-20T07:08:17.287Z,36.00
2019-05-20T07:10:47.031Z,36.00
2019-05-20T07:13:16.469Z,40.80
2019-05-20T07:15:45.801Z,40.25
2019-05-20T07:18:14.933Z,36.98
2019-05-20T07:20:44.071Z,39.27
2019-05-20T07:23:13.251Z,35.40
2019-05-20T07:25:42.429Z,35.40
2019-05-20T07:28:11.690Z,37.33
2019-05-20T07:30:40.807Z,32.65
2019-05-20T07:33:10.094Z,33.58
2019-05-20T07:35:39.192Z,36.05
2019-05-20T07:38:08.390Z,36.35
2019-05-20T07:40:37.692Z,36.30
2019-05-20T07:43:06.908Z,31.55
2019-05-20T07:45:36.593Z,41.58
2019-05-20T07:48:06.684Z,40.67
2019-05-20T07:50:39.425Z,38.15
2019-05-20T07:53:10.931Z,37.38
2019-05-20T07:55:46.991Z,33.78
2019-05-20T07:58:18.994Z,33.00
2019-05-20T08:00:48.194Z,35.30
2019-05-20T08:03:17.342Z,33.78
2019-05-20T08:05:46.501Z,34.83
2019-05-20T08:08:15.646Z,35.70
2019-05-20T08:10:44.846Z,31.73
2019-05-20T08:13:14.003Z,34.60
2019-05-20T08:15:43.163Z,38.60
2019-05-20T08:18:12.387Z,35.10
2019-05-20T08:20:41.539Z,32.42
2019-05-20T08:23:11.195Z,30.80
2019-05-20T08:25:40.971Z,33.30
2019-05-20T08:28:10.145Z,31.62
2019-05-20T08:30:40.510Z,33.20
2019-05-20T08:33:10.863Z,34.60
2019-05-20T08:35:40.060Z,32.83
2019-05-20T08:38:09.395Z,37.73
2019-05-20T08:40:38.659Z,37.00
2019-05-20T08:43:07.908Z,33.50
2019-05-20T08:45:37.094Z,35.33
2019-05-20T08:48:06.247Z,36.50
2019-05-20T08:50:35.384Z,34.60
2019-05-20T08:53:04.538Z,38.15
2019-05-20T08:55:33.733Z,39.92
2019-05-20T08:58:02.977Z,33.88
2019-05-20T09:00:32.165Z,32.35
2019-05-20T09:03:01.316Z,38.67
2019-05-20T09:05:30.482Z,38.42
2019-05-20T09:08:03.551Z,36.75
2019-05-20T09:10:30.625Z,37.05
2019-05-20T09:12:59.880Z,40.45
2019-05-20T09:15:29.116Z,32.55
2019-05-20T09:17:58.426Z,33.45
2019-05-20T09:20:27.580Z,38.55
2019-05-20T09:22:57.220Z,37.95
2019-05-20T09:25:32.873Z,36.03
2019-05-20T09:28:02.472Z,36.90
2019-05-20T09:30:31.725Z,32.00
2019-05-20T09:33:00.975Z,37.23
2019-05-20T09:35:30.154Z,36.33
2019-05-20T09:37:59.435Z,34.13
2019-05-20T09:40:42.976Z,34.85
2019-05-20T09:43:12.303Z,39.08
2019-05-20T09:45:42.838Z,33.65
2019-05-20T09:48:12.516Z,33.30
2019-05-20T09:50:41.665Z,36.95
2019-05-20T09:53:10.875Z,33.75
2019-05-20T09:55:40.157Z,28.85
2019-05-20T09:58:09.670Z,33.05
2019-05-20T10:00:38.808Z,33.30
2019-05-20T10:03:08.730Z,37.90
2019-05-20T10:05:38.113Z,37.05
2019-05-20T10:08:07.678Z,31.95
2019-05-20T10:10:36.989Z,32.10
2019-05-20T10:13:06.775Z,34.25
2019-05-20T10:15:36.473Z,38.23
2019-05-20T10:18:05.664Z,34.88
2019-05-20T10:20:34.911Z,33.30
2019-05-20T10:23:04.062Z,38.78
2019-05-20T10:25:33.178Z,39.90
2019-05-20T10:28:02.344Z,37.58
2019-05-20T10:30:31.482Z,31.10
2019-05-20T10:33:00.870Z,30.05
2019-05-20T10:35:30.083Z,30.77
2019-05-20T10:37:59.287Z,28.85
2019-05-20T10:40:28.479Z,34.53
2019-05-20T10:42:58.735Z,30.43
2019-05-20T10:45:27.875Z,30.85
2019-05-20T10:47:59.807Z,32.23
2019-05-20T10:50:28.957Z,31.80
2019-05-20T10:52:58.318Z,32.25
2019-05-20T10:55:27.596Z,31.85
2019-05-20T10:57:56.735Z,31.10
2019-05-20T11:00:25.958Z,32.55
2019-05-20T11:02:55.138Z,30.77
2019-05-20T11:05:24.275Z,33.75
2019-05-20T11:07:53.440Z,35.58
2019-05-20T11:10:22.713Z,33.90
2019-05-20T11:12:51.913Z,32.33
2019-05-20T11:15:21.033Z,32.42
2019-05-20T11:17:50.176Z,28.52
2019-05-20T11:20:19.794Z,32.95
2019-05-20T11:22:48.953Z,30.55
2019-05-20T11:25:18.228Z,31.73
2019-05-20T11:27:47.419Z,29.27
2019-05-20T11:30:16.935Z,30.17
2019-05-20T11:32:46.062Z,28.15
2019-05-20T11:35:15.574Z,28.40
2019-05-20T11:37:44.693Z,33.45
2019-05-20T11:40:15.200Z,30.90
2019-05-20T11:42:50.453Z,26.55
2019-05-20T11:45:19.711Z,29.75
2019-05-20T11:47:48.918Z,27.45
2019-05-20T11:50:18.441Z,29.70
2019-05-20T11:52:47.567Z,30.97
2019-05-20T11:55:16.933Z,25.92
2019-05-20T11:57:46.404Z,29.05
2019-05-20T12:00:15.779Z,31.93
2019-05-20T12:02:45.022Z,34.95
2019-05-20T12:05:14.427Z,29.95
2019-05-20T12:07:43.546Z,30.25
2019-05-20T12:10:13.269Z,27.10
2019-05-20T12:12:45.902Z,28.45
2019-05-20T12:15:14.646Z,30.55
2019-05-20T12:17:44.165Z,31.75
2019-05-20T12:20:13.544Z,35.05
2019-05-20T12:22:42.706Z,32.38
2019-05-20T12:25:12.573Z,31.52
2019-05-20T12:27:41.737Z,29.27
2019-05-20T12:30:11.524Z,30.23
2019-05-20T12:32:40.797Z,31.73
2019-05-20T12:35:10.419Z,31.48
2019-05-20T12:37:39.663Z,28.95
2019-05-20T12:40:09.115Z,32.75
2019-05-20T12:42:38.312Z,31.70
2019-05-20T12:45:08.361Z,32.75
2019-05-20T12:47:38.189Z,32.78
2019-05-20T12:50:09.241Z,35.45
2019-05-20T12:52:38.399Z,32.38
2019-05-20T12:55:09.822Z,32.03
2019-05-20T12:57:39.034Z,38.20
2019-05-20T13:00:09.328Z,27.93
2019-05-20T13:02:38.618Z,31.85
2019-05-20T13:05:07.986Z,31.05
2019-05-20T13:07:37.403Z,32.63
2019-05-20T13:10:26.748Z,28.20
2019-05-20T13:12:38.795Z,29.05
2019-05-20T13:15:08.580Z,30.68
2019-05-20T13:17:42.959Z,31.23
2019-05-20T13:20:09.151Z,28.67
2019-05-20T13:22:38.330Z,30.80
2019-05-20T13:25:07.616Z,32.15
2019-05-20T13:27:36.893Z,30.15
2019-05-20T13:30:07.484Z,29.30
2019-05-20T13:32:36.673Z,26.90
2019-05-20T13:35:06.093Z,28.15
2019-05-20T13:37:35.265Z,28.30
2019-05-20T13:40:04.627Z,28.25
2019-05-20T13:42:33.974Z,29.18
2019-05-20T13:45:03.119Z,28.35
2019-05-20T13:47:32.286Z,30.82
2019-05-20T13:50:01.473Z,32.10
2019-05-20T13:52:30.690Z,31.55
2019-05-20T13:54:59.891Z,36.50
2019-05-20T13:57:29.022Z,33.63
2019-05-20T13:59:58.300Z,27.80
2019-05-20T14:02:27.493Z,31.82
2019-05-20T14:04:56.767Z,32.55
2019-05-20T14:07:25.969Z,32.60
2019-05-20T14:09:55.387Z,32.63
2019-05-20T14:12:24.576Z,32.38
2019-05-20T14:14:53.801Z,31.68
2019-05-20T14:17:23.065Z,31.87
2019-05-20T14:19:52.486Z,33.02
2019-05-20T14:22:21.686Z,31.55
2019-05-20T14:24:50.873Z,34.95
2019-05-20T14:27:20.021Z,32.20
2019-05-20T14:29:49.158Z,39.78
2019-05-20T14:32:18.353Z,37.33
2019-05-20T14:34:47.498Z,30.77
2019-05-20T14:37:16.673Z,35.40
2019-05-20T14:39:46.044Z,35.60
2019-05-20T14:42:15.511Z,35.90
2019-05-20T14:44:44.679Z,35.65
2019-05-20T14:47:13.796Z,34.48
2019-05-20T14:49:42.991Z,35.70
2019-05-20T14:52:12.090Z,38.02
2019-05-20T14:54:41.267Z,38.70
2019-05-20T14:57:10.382Z,34.95
2019-05-20T14:59:39.559Z,36.42
2019-05-20T15:02:08.977Z,40.80
2019-05-20T15:04:38.235Z,39.50
2019-05-20T15:07:07.539Z,37.25
2019-05-20T15:09:36.858Z,29.90
2019-05-20T15:12:06.122Z,22.17
2019-05-20T15:14:35.356Z,18.35
2019-05-20T15:17:04.593Z,6.45
2019-05-20T15:19:33.731Z,10.05
2019-05-20T15:22:02.910Z,8.73
2019-05-20T15:24:32.923Z,6.72
2019-05-20T15:27:02.274Z,6.67
2019-05-20T15:29:31.525Z,8.68
2019-05-20T15:32:10.595Z,7.15
2019-05-20T15:34:39.723Z,7.53
2019-05-20T15:37:08.879Z,10.98
2019-05-20T15:39:38.069Z,7.55
2019-05-20T15:42:07.306Z,6.87
2019-05-20T15:44:36.483Z,5.87
2019-05-20T15:47:05.693Z,6.53
2019-05-20T15:49:34.782Z,6.12
2019-05-20T15:52:03.937Z,7.95
2019-05-20T15:54:33.149Z,4.33
2019-05-20T15:57:02.338Z,5.08
2019-05-20T15:59:44.718Z,7.50
2019-05-20T16:02:02.363Z,8.65
2019-05-20T16:04:31.493Z,6.30
2019-05-20T16:07:00.658Z,6.72
2019-05-20T16:09:29.798Z,6.40
2019-05-20T16:11:58.940Z,8.08
2019-05-20T16:14:28.048Z,6.00
2019-05-20T16:16:57.211Z,7.35
2019-05-20T16:19:26.322Z,7.25
2019-05-20T16:21:55.542Z,6.85
2019-05-20T16:24:24.687Z,7.03
2019-05-20T16:26:53.861Z,8.25
2019-05-20T16:29:23.016Z,6.72
2019-05-20T16:31:52.136Z,6.70
2019-05-20T16:34:21.287Z,6.37
2019-05-20T16:36:50.407Z,6.92
2019-05-20T16:39:19.513Z,8.15
2019-05-20T16:41:48.736Z,7.12
2019-05-20T16:44:18.052Z,6.65
2019-05-20T16:46:47.208Z,6.55
2019-05-20T16:49:16.340Z,7.10
2019-05-20T16:51:45.451Z,8.50
2019-05-20T16:54:14.716Z,7.65
2019-05-20T16:56:43.856Z,10.88
2019-05-20T16:59:13.021Z,7.83
2019-05-20T17:01:46.283Z,8.65
2019-05-20T17:04:12.991Z,7.60
2019-05-20T17:06:42.146Z,7.12
2019-05-20T17:09:11.271Z,7.22
2019-05-20T17:11:40.396Z,7.05
2019-05-20T17:14:10.706Z,7.92
2019-05-20T17:16:40.140Z,7.28
2019-05-20T17:19:09.221Z,8.03
2019-05-20T17:21:38.381Z,6.80
2019-05-20T17:24:07.604Z,7.72
2019-05-20T17:26:36.844Z,9.08
2019-05-20T17:29:06.135Z,7.40
2019-05-20T17:31:35.310Z,8.63
2019-05-20T17:34:04.440Z,9.18
2019-05-20T17:36:33.548Z,6.92
2019-05-20T17:39:02.736Z,9.18
2019-05-20T17:41:31.882Z,6.03
2019-05-20T17:44:00.994Z,9.43
2019-05-20T17:46:30.262Z,9.15
2019-05-20T17:48:59.423Z,7.50
2019-05-20T17:51:28.544Z,8.75
2019-05-20T17:53:57.786Z,9.45
2019-05-20T17:56:26.996Z,9.58
2019-05-20T17:58:56.200Z,7.83
2019-05-20T18:01:25.422Z,10.58
2019-05-20T18:03:54.600Z,12.25
2019-05-20T18:06:23.776Z,11.95
2019-05-20T18:08:54.923Z,20.48
2019-05-20T18:11:24.074Z,18.15
2019-05-20T18:13:53.248Z,14.73
2019-05-20T18:16:22.380Z,14.55
2019-05-20T18:18:51.563Z,19.25
2019-05-20T18:21:20.718Z,12.85
2019-05-20T18:23:49.852Z,19.05
2019-05-20T18:26:19.014Z,16.32
2019-05-20T18:28:48.306Z,14.63
2019-05-20T18:31:31.370Z,20.68
2019-05-20T18:33:48.284Z,24.85
2019-05-20T18:36:17.463Z,20.23
2019-05-20T18:38:49.394Z,24.25
2019-05-20T18:41:17.554Z,20.60
2019-05-20T18:43:46.694Z,30.62
2019-05-20T18:46:15.856Z,25.50
2019-05-20T18:48:45.015Z,29.70
2019-05-20T18:51:14.147Z,24.40
2019-05-20T18:53:43.287Z,25.17
2019-05-20T18:56:12.459Z,25.72
2019-05-20T18:58:41.662Z,30.23
2019-05-20T19:01:11.253Z,30.88
2019-05-20T19:03:40.499Z,31.12
2019-05-20T19:06:09.648Z,31.15
2019-05-20T19:08:38.789Z,31.25
2019-05-20T19:11:07.955Z,33.45
2019-05-20T19:13:37.103Z,30.65
2019-05-20T19:16:06.391Z,28.12
2019-05-20T19:18:35.643Z,23.90
2019-05-20T19:21:04.847Z,20.25
2019-05-20T19:23:34.001Z,21.85
2019-05-20T19:26:03.189Z,22.20
2019-05-20T19:28:32.341Z,23.77
2019-05-20T19:31:01.495Z,27.07
2019-05-20T19:33:30.637Z,25.72
2019-05-20T19:35:59.818Z,22.00
2019-05-20T19:38:32.849Z,28.40
2019-05-20T19:40:59.872Z,27.52
2019-05-20T19:43:29.025Z,35.48
2019-05-20T19:45:58.195Z,32.55
2019-05-20T19:48:27.356Z,23.55
2019-05-20T19:50:56.495Z,27.85
2019-05-20T19:53:25.697Z,31.12
2019-05-20T19:55:54.828Z,29.50
2019-05-20T19:58:23.999Z,26.73
2019-05-20T20:00:56.426Z,22.10
2019-05-20T20:03:24.041Z,22.00
2019-05-20T20:05:53.161Z,22.58
2019-05-20T20:08:22.313Z,24.57
2019-05-20T20:10:51.670Z,22.77
2019-05-20T20:13:20.828Z,30.10
2019-05-20T20:15:50.018Z,30.35
2019-05-20T20:18:19.139Z,26.90
2019-05-20T20:20:48.271Z,33.90
2019-05-20T20:23:17.437Z,33.63
2019-05-20T20:25:46.571Z,37.28
2019-05-20T20:28:15.719Z,29.87
2019-05-20T20:30:44.905Z,31.68
2019-05-20T20:33:14.160Z,24.30
2019-05-20T20:35:43.295Z,28.40
2019-05-20T20:38:12.484Z,33.80
2019-05-20T20:40:41.675Z,32.60
2019-05-20T20:43:10.813Z,38.63
2019-05-20T20:45:39.970Z,32.73
2019-05-20T20:48:09.100Z,30.45
2019-05-20T20:50:38.235Z,30.20
2019-05-20T20:53:07.377Z,33.02
2019-05-20T20:55:36.527Z,26.77
2019-05-20T20:58:05.726Z,25.75
2019-05-20T21:00:35.113Z,24.15
2019-05-20T21:03:04.253Z,22.58
2019-05-20T21:05:33.375Z,22.42
2019-05-20T21:08:02.531Z,22.70
2019-05-20T21:10:31.686Z,25.27
2019-05-20T21:13:00.839Z,30.80
2019-05-20T21:15:29.991Z,22.20
2019-05-20T21:17:59.206Z,23.05
2019-05-20T21:20:28.362Z,21.17
2019-05-20T21:22:57.600Z,26.42
2019-05-20T21:25:26.730Z,19.62
2019-05-20T21:27:55.891Z,31.23
2019-05-20T21:30:24.987Z,26.70
2019-05-20T21:33:08.218Z,26.20
2019-05-20T21:35:25.021Z,30.32
2019-05-20T21:37:54.132Z,32.88
2019-05-20T21:40:23.313Z,24.12
2019-05-20T21:42:52.440Z,31.15
2019-05-20T21:45:21.697Z,25.52
2019-05-20T21:47:50.812Z,28.80
2019-05-20T21:50:19.955Z,26.93
2019-05-20T21:52:49.106Z,35.73
2019-05-20T21:55:18.238Z,31.75
2019-05-20T21:57:47.365Z,30.57
2019-05-20T22:00:22.671Z,38.50
2019-05-20T22:02:51.798Z,37.20
2019-05-20T22:05:20.960Z,36.15
2019-05-20T22:07:50.118Z,37.75
2019-05-20T22:10:19.278Z,33.75
2019-05-20T22:12:48.539Z,31.70
2019-05-20T22:15:17.677Z,30.55
2019-05-20T22:17:46.817Z,30.05
2019-05-20T22:20:16.176Z,33.88
2019-05-20T22:22:50.476Z,33.38
2019-05-20T22:25:19.628Z,32.05
2019-05-20T22:27:48.794Z,27.22
2019-05-20T22:30:18.024Z,25.25
2019-05-20T22:32:47.148Z,25.95
2019-05-20T22:35:16.283Z,24.23
2019-05-20T22:37:45.440Z,21.60
2019-05-20T22:40:14.830Z,20.12
2019-05-20T22:42:44.045Z,23.95
2019-05-20T22:45:13.162Z,23.85
2019-05-20T22:47:42.303Z,22.35
2019-05-20T22:50:11.466Z,21.95
2019-05-20T22:52:40.573Z,25.80
2019-05-20T22:55:09.736Z,22.10
2019-05-20T22:57:38.893Z,21.50
2019-05-20T23:00:08.257Z,20.95
2019-05-20T23:02:37.354Z,20.62
2019-05-20T23:05:06.608Z,19.42
2019-05-20T23:07:35.761Z,21.65
2019-05-20T23:10:05.160Z,21.62
2019-05-20T23:12:34.405Z,19.87
2019-05-20T23:15:03.624Z,19.57
2019-05-20T23:17:32.731Z,21.87
2019-05-20T23:20:02.026Z,17.80
2019-05-20T23:22:31.200Z,21.40
2019-05-20T23:25:00.443Z,16.75
2019-05-20T23:27:29.589Z,16.75
2019-05-20T23:29:58.737Z,16.95
2019-05-20T23:32:27.896Z,14.60
2019-05-20T23:34:57.074Z,15.68
2019-05-20T23:37:26.217Z,13.78
2019-05-20T23:39:55.345Z,15.18
2019-05-20T23:42:24.496Z,11.43
2019-05-20T23:44:53.639Z,12.65
2019-05-20T23:47:22.905Z,14.68
2019-05-20T23:49:52.014Z,13.35
2019-05-20T23:52:21.144Z,13.85
2019-05-20T23:54:50.266Z,16.10
2019-05-20T23:57:19.451Z,15.08
2019-05-20T23:59:48.581Z,15.48
